createdAt,value
2023-05-10T00:00:35.939Z,19.6041
2023-05-10T00:01:36.985Z,19.5603
2023-05-10T00:02:38.216Z,19.5338
2023-05-10T00:03:39.263Z,19.4903
2023-05-10T00:04:40.284Z,19.4882
2023-05-10T00:05:41.391Z,19.5201
2023-05-10T00:06:42.442Z,19.5762
2023-05-10T00:07:43.528Z,19.5985
2023-05-10T00:08:44.617Z,19.5688
2023-05-10T00:09:45.705Z,19.6230
2023-05-10T00:10:46.818Z,19.5790
2023-05-10T00:11:47.888Z,19.5673
2023-05-10T00:12:49.052Z,19.5948
2023-05-10T00:13:50.070Z,19.5558
2023-05-10T00:14:51.164Z,19.5702
2023-05-10T00:15:52.245Z,19.5809
2023-05-10T00:16:53.522Z,19.6033
2023-05-10T00:17:54.485Z,19.5681
2023-05-10T00:18:55.548Z,19.5045
2023-05-10T00:19:56.610Z,19.5494
2023-05-10T00:20:57.735Z,19.5889
2023-05-10T00:21:58.798Z,19.5423
2023-05-10T00:22:59.879Z,19.5084
2023-05-10T00:24:00.987Z,19.5400
2023-05-10T00:25:02.076Z,19.5926
2023-05-10T00:26:03.182Z,19.5916
2023-05-10T00:27:04.231Z,19.6045
2023-05-10T00:28:05.327Z,19.6224
2023-05-10T00:29:06.451Z,19.6415
2023-05-10T00:30:07.516Z,19.6131
2023-05-10T00:31:08.610Z,19.5807
2023-05-10T00:32:09.804Z,19.5948
2023-05-10T00:33:10.869Z,19.5028
2023-05-10T00:34:11.899Z,19.4128
2023-05-10T00:35:12.989Z,19.4802
2023-05-10T00:36:14.097Z,19.4782
2023-05-10T00:37:15.169Z,19.3629
2023-05-10T00:38:16.245Z,19.4276
2023-05-10T00:39:17.353Z,19.5295
2023-05-10T00:40:18.712Z,19.5922
2023-05-10T00:41:19.545Z,19.5297
2023-05-10T00:42:20.611Z,19.4975
2023-05-10T00:43:21.704Z,19.4907
2023-05-10T00:44:22.792Z,19.4237
2023-05-10T00:45:23.904Z,19.4767
2023-05-10T00:46:25.019Z,19.5119
2023-05-10T00:47:26.160Z,19.5642
2023-05-10T00:48:27.166Z,19.6146
2023-05-10T00:49:28.250Z,19.6834
2023-05-10T00:50:29.333Z,19.6402
2023-05-10T00:51:30.473Z,19.6094
2023-05-10T00:52:31.537Z,19.6129
2023-05-10T00:53:32.613Z,19.6630
2023-05-10T00:54:33.705Z,19.6610
2023-05-10T00:55:34.793Z,19.6470
2023-05-10T00:56:35.898Z,19.6248
2023-05-10T00:57:36.962Z,19.6135
2023-05-10T00:58:38.056Z,19.6351
2023-05-10T00:59:39.146Z,19.6154
2023-05-10T01:00:40.234Z,19.5922
2023-05-10T01:01:41.391Z,19.5688
2023-05-10T01:02:42.519Z,19.5369
2023-05-10T01:03:43.488Z,19.4344
2023-05-10T01:04:44.642Z,19.4541
2023-05-10T01:05:45.685Z,19.5293
2023-05-10T01:06:46.775Z,19.5447
2023-05-10T01:07:47.847Z,19.5244
2023-05-10T01:08:48.933Z,19.5698
2023-05-10T01:09:50.032Z,19.5494
2023-05-10T01:10:51.109Z,19.5022
2023-05-10T01:11:52.281Z,19.5421
2023-05-10T01:12:53.366Z,19.6236
2023-05-10T01:13:54.376Z,19.5985
2023-05-10T01:14:55.475Z,19.4979
2023-05-10T01:15:56.593Z,19.5180
2023-05-10T01:16:57.700Z,19.5275
2023-05-10T01:17:58.780Z,19.5322
2023-05-10T01:18:59.856Z,19.5739
2023-05-10T01:20:00.945Z,19.6129
2023-05-10T01:21:02.023Z,19.5412
2023-05-10T01:22:03.123Z,19.5852
2023-05-10T01:23:04.196Z,19.6380
2023-05-10T01:24:05.297Z,19.6037
2023-05-10T01:25:06.355Z,19.5342
2023-05-10T01:26:07.444Z,19.4911
2023-05-10T01:27:08.631Z,19.5624
2023-05-10T01:28:09.629Z,19.5577
2023-05-10T01:29:10.727Z,19.6257
2023-05-10T01:30:22.003Z,19.6517
2023-05-10T01:31:13.933Z,19.6020
2023-05-10T01:32:14.018Z,19.6123
2023-05-10T01:33:15.082Z,19.6614
2023-05-10T01:34:16.160Z,19.7136
2023-05-10T01:35:17.251Z,19.7169
2023-05-10T01:36:18.327Z,19.6524
2023-05-10T01:37:19.440Z,19.6211
2023-05-10T01:38:20.525Z,19.6587
2023-05-10T01:39:21.600Z,19.7095
2023-05-10T01:40:22.672Z,19.6980
2023-05-10T01:41:23.762Z,19.7277
2023-05-10T01:42:24.877Z,19.7499
2023-05-10T01:43:25.935Z,19.7086
2023-05-10T01:44:27.038Z,19.7368
2023-05-10T01:45:28.157Z,19.7023
2023-05-10T01:46:29.233Z,19.6353
2023-05-10T01:47:30.354Z,19.6142
2023-05-10T01:48:31.452Z,19.6493
2023-05-10T01:49:32.483Z,19.7000
2023-05-10T01:50:33.574Z,19.7047
2023-05-10T01:51:34.664Z,19.7372
2023-05-10T01:52:35.754Z,19.7676
2023-05-10T01:53:36.836Z,19.7801
2023-05-10T01:54:37.929Z,19.7789
2023-05-10T01:55:39.038Z,19.7592
2023-05-10T01:56:40.121Z,19.7637
2023-05-10T01:57:41.210Z,19.7666
2023-05-10T01:58:42.309Z,19.7569
2023-05-10T01:59:43.402Z,19.7353
2023-05-10T02:00:44.534Z,19.7021
2023-05-10T02:01:45.573Z,19.7294
2023-05-10T02:02:46.709Z,19.7056
2023-05-10T02:03:47.814Z,19.7210
2023-05-10T02:04:48.853Z,19.7335
2023-05-10T02:05:57.479Z,19.7721
2023-05-10T02:06:51.044Z,19.7423
2023-05-10T02:07:52.169Z,19.7082
2023-05-10T02:08:53.212Z,19.7010
2023-05-10T02:09:54.322Z,19.6865
2023-05-10T02:10:55.407Z,19.6739
2023-05-10T02:11:56.494Z,19.6423
2023-05-10T02:12:57.615Z,19.7171
2023-05-10T02:13:58.703Z,19.7620
2023-05-10T02:14:59.795Z,19.7707
2023-05-10T02:16:00.904Z,19.8052
2023-05-10T02:17:02.082Z,19.7411
2023-05-10T02:18:03.151Z,19.6869
2023-05-10T02:19:04.162Z,19.7368
2023-05-10T02:20:05.232Z,19.7292
2023-05-10T02:21:06.387Z,19.7086
2023-05-10T02:22:07.448Z,19.7343
2023-05-10T02:23:08.538Z,19.7360
2023-05-10T02:24:09.619Z,19.7144
2023-05-10T02:25:10.706Z,19.7179
2023-05-10T02:26:11.802Z,19.7072
2023-05-10T02:27:12.896Z,19.6904
2023-05-10T02:28:14.134Z,19.7403
2023-05-10T02:29:15.160Z,19.7651
2023-05-10T02:30:16.367Z,19.7370
2023-05-10T02:31:17.320Z,19.7429
2023-05-10T02:32:18.518Z,19.7512
2023-05-10T02:33:19.532Z,19.7335
2023-05-10T02:34:20.620Z,19.7608
2023-05-10T02:35:21.699Z,19.7243
2023-05-10T02:36:22.784Z,19.6487
2023-05-10T02:37:23.885Z,19.6437
2023-05-10T02:38:24.968Z,19.6676
2023-05-10T02:39:26.043Z,19.7183
2023-05-10T02:40:28.792Z,19.7485
2023-05-10T02:41:28.242Z,19.7160
2023-05-10T02:42:29.328Z,19.7105
2023-05-10T02:43:30.422Z,19.6698
2023-05-10T02:44:31.543Z,19.6840
2023-05-10T02:45:32.595Z,19.7450
2023-05-10T02:46:33.815Z,19.7425
2023-05-10T02:47:34.811Z,19.7203
2023-05-10T02:48:35.891Z,19.6975
2023-05-10T02:49:36.969Z,19.7027
2023-05-10T02:50:38.062Z,19.7189
2023-05-10T02:51:39.156Z,19.7651
2023-05-10T02:52:40.250Z,19.7475
2023-05-10T02:53:41.405Z,19.7010
2023-05-10T02:54:42.411Z,19.7041
2023-05-10T02:55:43.518Z,19.7222
2023-05-10T02:56:44.605Z,19.6840
2023-05-10T02:57:45.711Z,19.6404
2023-05-10T02:58:46.815Z,19.6561
2023-05-10T02:59:47.898Z,19.7056
2023-05-10T03:00:48.952Z,19.7025
2023-05-10T03:01:50.180Z,19.6232
2023-05-10T03:02:51.175Z,19.6711
2023-05-10T03:03:52.289Z,19.6747
2023-05-10T03:04:53.369Z,19.6844
2023-05-10T03:05:54.441Z,19.6817
2023-05-10T03:06:55.505Z,19.7405
2023-05-10T03:07:56.629Z,19.7738
2023-05-10T03:08:57.709Z,19.8081
2023-05-10T03:09:58.788Z,19.7212
2023-05-10T03:10:59.864Z,19.7349
2023-05-10T03:12:00.961Z,19.7384
2023-05-10T03:13:02.083Z,19.6936
2023-05-10T03:14:03.158Z,19.6476
2023-05-10T03:15:04.219Z,19.6848
2023-05-10T03:16:05.336Z,19.6786
2023-05-10T03:17:06.407Z,19.6955
2023-05-10T03:18:07.616Z,19.6943
2023-05-10T03:19:08.579Z,19.6930
2023-05-10T03:20:09.660Z,19.7298
2023-05-10T03:21:10.739Z,19.7571
2023-05-10T03:22:11.853Z,19.7296
2023-05-10T03:23:12.967Z,19.7175
2023-05-10T03:24:14.038Z,19.7199
2023-05-10T03:25:15.119Z,19.7312
2023-05-10T03:26:16.214Z,19.7590
2023-05-10T03:27:17.300Z,19.7984
2023-05-10T03:28:18.395Z,19.7664
2023-05-10T03:29:19.579Z,19.7793
2023-05-10T03:30:20.576Z,19.8087
2023-05-10T03:31:21.685Z,19.7887
2023-05-10T03:32:22.804Z,19.7249
2023-05-10T03:33:23.861Z,19.6928
2023-05-10T03:34:24.998Z,19.7446
2023-05-10T03:35:26.075Z,19.7855
2023-05-10T03:36:27.154Z,19.7838
2023-05-10T03:37:28.261Z,19.7514
2023-05-10T03:38:30.534Z,19.6951
2023-05-10T03:39:30.405Z,19.7645
2023-05-10T03:40:31.474Z,19.8070
2023-05-10T03:41:32.572Z,19.7592
2023-05-10T03:42:33.685Z,19.7559
2023-05-10T03:43:34.781Z,19.7631
2023-05-10T03:44:35.867Z,19.7976
2023-05-10T03:45:36.943Z,19.7900
2023-05-10T03:46:38.085Z,19.7647
2023-05-10T03:47:39.163Z,19.7380
2023-05-10T03:48:40.240Z,19.7257
2023-05-10T03:49:41.368Z,19.7136
2023-05-10T03:50:42.422Z,19.7019
2023-05-10T03:51:43.495Z,19.6848
2023-05-10T03:52:44.620Z,19.7117
2023-05-10T03:53:45.694Z,19.7240
2023-05-10T03:54:46.807Z,19.7425
2023-05-10T03:55:47.861Z,19.7431
2023-05-10T03:56:49.023Z,19.5686
2023-05-10T03:57:50.053Z,19.5546
2023-05-10T03:58:51.123Z,19.5529
2023-05-10T03:59:52.229Z,19.5747
2023-05-10T04:00:53.335Z,19.6135
2023-05-10T04:01:54.490Z,19.6376
2023-05-10T04:02:55.542Z,19.6967
2023-05-10T04:03:56.665Z,19.7183
2023-05-10T04:04:57.689Z,19.6867
2023-05-10T04:05:58.856Z,19.6696
2023-05-10T04:06:59.868Z,19.7277
2023-05-10T04:08:00.968Z,19.7512
2023-05-10T04:09:02.082Z,19.7688
2023-05-10T04:10:03.174Z,19.7464
2023-05-10T04:11:04.230Z,19.7573
2023-05-10T04:12:05.365Z,19.7645
2023-05-10T04:13:06.511Z,19.7434
2023-05-10T04:14:07.503Z,19.7906
2023-05-10T04:15:08.653Z,19.7655
2023-05-10T04:16:09.685Z,19.7682
2023-05-10T04:17:10.817Z,19.7534
2023-05-10T04:18:11.900Z,19.7333
2023-05-10T04:19:12.964Z,19.7423
2023-05-10T04:20:14.193Z,19.7723
2023-05-10T04:21:15.168Z,19.7499
2023-05-10T04:22:16.234Z,19.7399
2023-05-10T04:23:17.300Z,19.7333
2023-05-10T04:24:18.402Z,19.7540
2023-05-10T04:25:19.488Z,19.6842
2023-05-10T04:26:20.577Z,19.5899
2023-05-10T04:27:21.701Z,19.5733
2023-05-10T04:28:22.760Z,19.5716
2023-05-10T04:29:23.863Z,19.6024
2023-05-10T04:30:24.957Z,19.5948
2023-05-10T04:31:26.074Z,19.6538
2023-05-10T04:32:27.191Z,19.6704
2023-05-10T04:33:28.288Z,19.6760
2023-05-10T04:34:29.300Z,19.6858
2023-05-10T04:35:30.385Z,19.6448
2023-05-10T04:36:31.470Z,19.6807
2023-05-10T04:37:32.575Z,19.7374
2023-05-10T04:38:33.728Z,19.7497
2023-05-10T04:39:34.759Z,19.7431
2023-05-10T04:40:35.933Z,19.7575
2023-05-10T04:41:36.919Z,19.7602
2023-05-10T04:42:38.017Z,19.7403
2023-05-10T04:43:39.245Z,19.6848
2023-05-10T04:44:40.207Z,19.7076
2023-05-10T04:45:41.325Z,19.7199
2023-05-10T04:46:42.510Z,19.7271
2023-05-10T04:47:43.521Z,19.7273
2023-05-10T04:48:44.563Z,19.7651
2023-05-10T04:49:45.645Z,19.7988
2023-05-10T04:50:46.771Z,19.8027
2023-05-10T04:51:47.868Z,19.8337
2023-05-10T04:52:48.936Z,19.8380
2023-05-10T04:54:01.446Z,19.8177
2023-05-10T04:54:52.116Z,19.8292
2023-05-10T04:55:52.215Z,19.8263
2023-05-10T04:56:53.294Z,19.7994
2023-05-10T04:57:54.388Z,19.8060
2023-05-10T04:58:55.498Z,19.7752
2023-05-10T04:59:56.544Z,19.8048
2023-05-10T05:00:57.674Z,19.8056
2023-05-10T05:01:58.801Z,19.7848
2023-05-10T05:02:59.930Z,19.8216
2023-05-10T05:04:01.043Z,19.8413
2023-05-10T05:05:02.015Z,19.8908
2023-05-10T05:06:03.168Z,19.8929
2023-05-10T05:07:04.206Z,19.8754
2023-05-10T05:08:05.295Z,19.8822
2023-05-10T05:09:06.396Z,19.8079
2023-05-10T05:10:07.525Z,19.7610
2023-05-10T05:11:08.574Z,19.7460
2023-05-10T05:12:09.706Z,19.7405
2023-05-10T05:13:10.782Z,19.7440
2023-05-10T05:14:11.833Z,19.7943
2023-05-10T05:15:12.967Z,19.8247
2023-05-10T05:16:14.223Z,19.7779
2023-05-10T05:17:15.168Z,19.7600
2023-05-10T05:18:16.233Z,19.7731
2023-05-10T05:19:17.371Z,19.8155
2023-05-10T05:20:18.674Z,19.7707
2023-05-10T05:21:19.516Z,19.7957
2023-05-10T05:22:20.619Z,19.8070
2023-05-10T05:23:21.741Z,19.8048
2023-05-10T05:24:22.786Z,19.8072
2023-05-10T05:25:23.869Z,19.8563
2023-05-10T05:26:24.971Z,19.8728
2023-05-10T05:27:26.053Z,19.8512
2023-05-10T05:28:27.180Z,19.8046
2023-05-10T05:29:28.246Z,19.7922
2023-05-10T05:30:29.342Z,19.8128
2023-05-10T05:31:30.496Z,19.8307
2023-05-10T05:32:31.552Z,19.8629
2023-05-10T05:33:32.617Z,19.8019
2023-05-10T05:34:33.734Z,19.7491
2023-05-10T05:35:34.813Z,19.7770
2023-05-10T05:36:37.619Z,19.7861
2023-05-10T05:37:36.981Z,19.7756
2023-05-10T05:38:38.093Z,19.8134
2023-05-10T05:39:39.229Z,19.8249
2023-05-10T05:40:40.291Z,19.8524
2023-05-10T05:41:41.351Z,19.8261
2023-05-10T05:42:42.458Z,19.7787
2023-05-10T05:43:43.544Z,19.8233
2023-05-10T05:44:44.623Z,19.8783
2023-05-10T05:45:45.777Z,19.8526
2023-05-10T05:46:46.866Z,19.7434
2023-05-10T05:47:47.976Z,19.6667
2023-05-10T05:48:48.987Z,19.7130
2023-05-10T05:49:50.109Z,19.7195
2023-05-10T05:50:51.182Z,19.7918
2023-05-10T05:51:52.270Z,19.7694
2023-05-10T05:52:53.366Z,19.7343
2023-05-10T05:53:54.497Z,19.7547
2023-05-10T05:54:55.549Z,19.8079
2023-05-10T05:55:56.621Z,19.8005
2023-05-10T05:56:59.830Z,19.7869
2023-05-10T05:57:58.829Z,19.8578
2023-05-10T05:58:59.912Z,19.7945
2023-05-10T06:00:01.019Z,19.7711
2023-05-10T06:01:02.099Z,19.7920
2023-05-10T06:02:03.213Z,19.7764
2023-05-10T06:03:04.378Z,19.7890
2023-05-10T06:04:05.444Z,19.7953
2023-05-10T06:05:06.507Z,19.7707
2023-05-10T06:06:07.571Z,19.8062
2023-05-10T06:07:08.704Z,19.8613
2023-05-10T06:08:09.772Z,19.9132
2023-05-10T06:09:10.834Z,19.8662
2023-05-10T06:10:11.929Z,19.8210
2023-05-10T06:11:13.036Z,19.8543
2023-05-10T06:12:14.139Z,19.8003
2023-05-10T06:13:15.245Z,19.7442
2023-05-10T06:14:16.310Z,19.6787
2023-05-10T06:15:17.593Z,19.6653
2023-05-10T06:16:18.503Z,19.7068
2023-05-10T06:17:19.603Z,19.7109
2023-05-10T06:18:20.717Z,19.7267
2023-05-10T06:19:21.785Z,19.7382
2023-05-10T06:20:22.894Z,19.7953
2023-05-10T06:21:24.001Z,19.8183
2023-05-10T06:22:25.063Z,19.8368
2023-05-10T06:23:26.156Z,19.8428
2023-05-10T06:24:27.261Z,19.8294
2023-05-10T06:25:28.360Z,19.8639
2023-05-10T06:26:29.487Z,19.8724
2023-05-10T06:27:30.535Z,19.8641
2023-05-10T06:28:31.710Z,19.9325
2023-05-10T06:29:32.808Z,19.9603
2023-05-10T06:30:33.933Z,19.9085
2023-05-10T06:31:35.011Z,19.7277
2023-05-10T06:32:36.174Z,19.6080
2023-05-10T06:33:37.194Z,19.6386
2023-05-10T06:34:38.254Z,19.6704
2023-05-10T06:35:39.350Z,19.7565
2023-05-10T06:36:40.460Z,19.7984
2023-05-10T06:37:41.603Z,19.8296
2023-05-10T06:38:42.682Z,19.8311
2023-05-10T06:39:43.746Z,19.7953
2023-05-10T06:40:44.834Z,19.8109
2023-05-10T06:41:45.943Z,19.8615
2023-05-10T06:42:47.001Z,19.8471
2023-05-10T06:43:48.133Z,19.8370
2023-05-10T06:44:49.236Z,19.8064
2023-05-10T06:45:50.279Z,19.8368
2023-05-10T06:46:51.446Z,19.8711
2023-05-10T06:47:52.565Z,19.8120
2023-05-10T06:48:53.601Z,19.8171
2023-05-10T06:49:54.678Z,19.8498
2023-05-10T06:50:55.757Z,19.9069
2023-05-10T06:51:56.843Z,19.9414
2023-05-10T06:52:57.960Z,19.9062
2023-05-10T06:53:59.025Z,19.8974
2023-05-10T06:55:00.179Z,19.8820
2023-05-10T06:56:01.212Z,19.8539
2023-05-10T06:57:03.935Z,19.8756
2023-05-10T06:58:03.436Z,19.8847
2023-05-10T06:59:04.575Z,19.9157
2023-05-10T07:00:05.660Z,19.9670
2023-05-10T07:01:06.731Z,19.9395
2023-05-10T07:02:07.848Z,19.8882
2023-05-10T07:03:09.017Z,19.8988
2023-05-10T07:04:09.962Z,19.8777
2023-05-10T07:05:11.037Z,19.8709
2023-05-10T07:06:21.758Z,19.8857
2023-05-10T07:07:14.261Z,19.9093
2023-05-10T07:08:14.371Z,19.8929
2023-05-10T07:09:15.422Z,19.9071
2023-05-10T07:10:16.512Z,19.9060
2023-05-10T07:11:17.628Z,19.8991
2023-05-10T07:12:18.733Z,19.9032
2023-05-10T07:13:19.915Z,19.9243
2023-05-10T07:14:20.933Z,19.8773
2023-05-10T07:15:22.002Z,19.8348
2023-05-10T07:16:23.306Z,19.8752
2023-05-10T07:17:24.216Z,19.8867
2023-05-10T07:18:25.302Z,19.9225
2023-05-10T07:19:26.369Z,19.9301
2023-05-10T07:20:27.490Z,19.9502
2023-05-10T07:21:28.582Z,19.9490
2023-05-10T07:22:29.625Z,19.9831
2023-05-10T07:23:30.762Z,19.9958
2023-05-10T07:24:31.835Z,19.9898
2023-05-10T07:25:32.957Z,19.9970
2023-05-10T07:26:34.058Z,20.0077
2023-05-10T07:27:35.149Z,19.9890
2023-05-10T07:28:36.218Z,19.9677
2023-05-10T07:29:37.301Z,19.9387
2023-05-10T07:30:38.426Z,19.8580
2023-05-10T07:31:39.531Z,19.8522
2023-05-10T07:32:40.755Z,19.8843
2023-05-10T07:33:41.725Z,19.9362
2023-05-10T07:34:42.792Z,19.9689
2023-05-10T07:35:43.919Z,19.9662
2023-05-10T07:36:44.975Z,19.9940
2023-05-10T07:37:46.057Z,19.7532
2023-05-10T07:38:47.171Z,19.6148
2023-05-10T07:39:48.314Z,19.6355
2023-05-10T07:40:49.353Z,19.7255
2023-05-10T07:41:50.469Z,19.7768
2023-05-10T07:42:51.546Z,19.8471
2023-05-10T07:43:52.664Z,19.7842
2023-05-10T07:44:53.739Z,19.7056
2023-05-10T07:45:56.427Z,19.7049
2023-05-10T07:46:55.976Z,19.7086
2023-05-10T07:47:57.100Z,19.8005
2023-05-10T07:48:58.138Z,19.8481
2023-05-10T07:49:59.229Z,19.8721
2023-05-10T07:51:00.310Z,19.7631
2023-05-10T07:52:01.406Z,19.7335
2023-05-10T07:53:02.516Z,19.7343
2023-05-10T07:54:03.631Z,19.7255
2023-05-10T07:55:04.684Z,19.7191
2023-05-10T07:56:05.777Z,19.6507
2023-05-10T07:57:06.901Z,19.5979
2023-05-10T07:58:07.989Z,19.6953
2023-05-10T07:59:11.304Z,19.8037
2023-05-10T08:00:10.174Z,19.7670
2023-05-10T08:01:11.250Z,19.7633
2023-05-10T08:02:12.405Z,19.7234
2023-05-10T08:03:13.584Z,19.6939
2023-05-10T08:04:14.569Z,19.7612
2023-05-10T08:05:16.008Z,19.7023
2023-05-10T08:06:16.720Z,19.6450
2023-05-10T08:07:17.810Z,19.6404
2023-05-10T08:08:18.922Z,19.6998
2023-05-10T08:09:20.153Z,19.6415
2023-05-10T08:10:21.180Z,19.6906
2023-05-10T08:11:22.178Z,19.7306
2023-05-10T08:12:23.297Z,19.7881
2023-05-10T08:13:24.358Z,19.8140
2023-05-10T08:14:25.463Z,19.7879
2023-05-10T08:15:26.540Z,19.7298
2023-05-10T08:16:27.829Z,19.7814
2023-05-10T08:17:28.738Z,19.8514
2023-05-10T08:18:29.877Z,19.8658
2023-05-10T08:19:30.944Z,19.9262
2023-05-10T08:20:32.008Z,19.9523
2023-05-10T08:21:33.116Z,19.9675
2023-05-10T08:22:34.198Z,19.9753
2023-05-10T08:23:35.293Z,19.9638
2023-05-10T08:24:36.418Z,19.8705
2023-05-10T08:25:37.463Z,19.8695
2023-05-10T08:26:38.560Z,19.9182
2023-05-10T08:27:39.644Z,19.9276
2023-05-10T08:28:40.748Z,19.8826
2023-05-10T08:29:49.397Z,19.9319
2023-05-10T08:30:43.938Z,19.9716
2023-05-10T08:31:44.185Z,20.0104
2023-05-10T08:32:45.191Z,20.0383
2023-05-10T08:33:46.234Z,20.0042
2023-05-10T08:34:47.326Z,19.9609
2023-05-10T08:35:48.416Z,19.9705
2023-05-10T08:36:49.511Z,19.9712
2023-05-10T08:37:50.617Z,19.9759
2023-05-10T08:38:52.187Z,19.9788
2023-05-10T08:39:52.815Z,19.9972
2023-05-10T08:40:53.957Z,19.9420
2023-05-10T08:41:55.017Z,19.9601
2023-05-10T08:42:56.087Z,20.0061
2023-05-10T08:43:57.192Z,20.0361
2023-05-10T08:44:58.297Z,20.0262
2023-05-10T08:45:59.418Z,20.0248
2023-05-10T08:47:00.735Z,19.9913
2023-05-10T08:48:01.591Z,19.9831
2023-05-10T08:49:02.710Z,19.9940
2023-05-10T08:50:03.779Z,19.9882
2023-05-10T08:51:04.873Z,19.9979
2023-05-10T08:52:05.973Z,20.0133
2023-05-10T08:53:07.082Z,20.0346
2023-05-10T08:54:08.223Z,20.0317
2023-05-10T08:55:09.318Z,20.0373
2023-05-10T08:56:10.417Z,20.0441
2023-05-10T08:57:11.504Z,20.0258
2023-05-10T08:58:12.624Z,20.0042
2023-05-10T08:59:13.732Z,20.0235
2023-05-10T09:00:14.827Z,20.0371
2023-05-10T09:01:15.966Z,20.0188
2023-05-10T09:02:18.811Z,20.0229
2023-05-10T09:03:18.170Z,20.0299
2023-05-10T09:04:19.325Z,20.0229
2023-05-10T09:05:20.620Z,20.0172
2023-05-10T09:06:21.490Z,20.0153
2023-05-10T09:07:22.567Z,20.0102
2023-05-10T09:08:23.718Z,19.9966
2023-05-10T09:09:24.776Z,20.0231
2023-05-10T09:10:26.013Z,20.0030
2023-05-10T09:11:26.975Z,19.9794
2023-05-10T09:12:28.068Z,19.9985
2023-05-10T09:13:29.210Z,19.9964
2023-05-10T09:14:30.334Z,20.0194
2023-05-10T09:15:31.462Z,20.0365
2023-05-10T09:16:32.517Z,20.0096
2023-05-10T09:17:33.680Z,19.9346
2023-05-10T09:18:34.833Z,19.9011
2023-05-10T09:19:35.834Z,19.8859
2023-05-10T09:20:36.933Z,19.9237
2023-05-10T09:21:38.051Z,19.9338
2023-05-10T09:22:39.161Z,19.9408
2023-05-10T09:23:40.235Z,19.9445
2023-05-10T09:24:41.341Z,19.9827
2023-05-10T09:25:42.482Z,20.0135
2023-05-10T09:26:43.574Z,19.9845
2023-05-10T09:27:44.681Z,19.9983
2023-05-10T09:28:45.832Z,19.9243
2023-05-10T09:29:46.889Z,19.8995
2023-05-10T09:30:48.022Z,19.8802
2023-05-10T09:31:49.099Z,19.7731
2023-05-10T09:32:50.346Z,19.7298
2023-05-10T09:33:51.300Z,19.7627
2023-05-10T09:34:52.517Z,19.8695
2023-05-10T09:35:53.562Z,19.9498
2023-05-10T09:36:54.637Z,19.9204
2023-05-10T09:37:55.743Z,19.8635
2023-05-10T09:38:56.832Z,19.7047
2023-05-10T09:39:57.957Z,19.5733
2023-05-10T09:40:59.067Z,19.5700
2023-05-10T09:42:00.165Z,19.7399
2023-05-10T09:43:01.275Z,19.8286
2023-05-10T09:44:02.381Z,19.9140
2023-05-10T09:45:03.487Z,19.9112
2023-05-10T09:46:04.605Z,19.8865
2023-05-10T09:47:05.727Z,19.9377
2023-05-10T09:48:06.915Z,19.9634
2023-05-10T09:49:07.910Z,19.9785
2023-05-10T09:50:09.037Z,19.9960
2023-05-10T09:51:10.140Z,19.9685
2023-05-10T09:52:11.226Z,20.0114
2023-05-10T09:53:12.403Z,19.9977
2023-05-10T09:54:13.463Z,19.9874
2023-05-10T09:55:14.718Z,19.9722
2023-05-10T09:56:15.670Z,19.9761
2023-05-10T09:57:16.790Z,20.0087
2023-05-10T09:58:17.907Z,19.9757
2023-05-10T09:59:19.012Z,19.9664
2023-05-10T10:00:20.195Z,19.9759
2023-05-10T10:01:21.252Z,20.0248
2023-05-10T10:02:22.387Z,20.0509
2023-05-10T10:03:23.434Z,20.0065
2023-05-10T10:04:24.622Z,19.9913
2023-05-10T10:05:25.676Z,19.9995
2023-05-10T10:06:29.986Z,19.9888
2023-05-10T10:07:27.876Z,19.9467
2023-05-10T10:08:28.969Z,19.8906
2023-05-10T10:09:30.067Z,19.9264
2023-05-10T10:10:31.172Z,19.9611
2023-05-10T10:11:32.289Z,19.9397
2023-05-10T10:12:33.485Z,19.9358
2023-05-10T10:13:34.503Z,19.9611
2023-05-10T10:14:35.596Z,19.9648
2023-05-10T10:15:36.831Z,20.0046
2023-05-10T10:16:43.653Z,20.0135
2023-05-10T10:17:39.961Z,20.0149
2023-05-10T10:18:40.046Z,20.0069
2023-05-10T10:19:41.148Z,20.0338
2023-05-10T10:20:42.217Z,20.0342
2023-05-10T10:21:43.370Z,20.0626
2023-05-10T10:22:44.428Z,20.0324
2023-05-10T10:23:45.532Z,20.0139
2023-05-10T10:24:46.627Z,19.9806
2023-05-10T10:25:47.719Z,19.9983
2023-05-10T10:26:48.848Z,20.0114
2023-05-10T10:27:49.931Z,19.9952
2023-05-10T10:28:51.084Z,19.9851
2023-05-10T10:29:52.205Z,19.9921
2023-05-10T10:30:53.311Z,20.0161
2023-05-10T10:31:54.549Z,20.0235
2023-05-10T10:32:55.507Z,20.0180
2023-05-10T10:33:56.584Z,20.0375
2023-05-10T10:34:57.655Z,20.0511
2023-05-10T10:35:58.761Z,20.0391
2023-05-10T10:36:59.866Z,20.0377
2023-05-10T10:38:00.989Z,20.0441
2023-05-10T10:39:02.048Z,20.0546
2023-05-10T10:40:03.128Z,20.0585
2023-05-10T10:41:04.244Z,20.0675
2023-05-10T10:42:05.343Z,20.0486
2023-05-10T10:43:06.413Z,19.9777
2023-05-10T10:44:07.520Z,19.9445
2023-05-10T10:45:08.620Z,19.9371
2023-05-10T10:46:09.720Z,19.9851
2023-05-10T10:47:11.044Z,19.9966
2023-05-10T10:48:11.909Z,20.0227
2023-05-10T10:49:13.019Z,20.0607
2023-05-10T10:50:14.925Z,20.0788
2023-05-10T10:51:15.183Z,20.0753
2023-05-10T10:52:16.323Z,20.0375
2023-05-10T10:53:17.414Z,19.9785
2023-05-10T10:54:18.519Z,20.0009
2023-05-10T10:55:19.657Z,20.0498
2023-05-10T10:56:20.675Z,20.0683
2023-05-10T10:57:21.769Z,20.0595
2023-05-10T10:58:22.856Z,19.9948
2023-05-10T10:59:23.989Z,19.9687
2023-05-10T11:00:25.067Z,19.9545
2023-05-10T11:01:26.165Z,19.9278
2023-05-10T11:02:27.715Z,19.9015
2023-05-10T11:03:28.361Z,19.9145
2023-05-10T11:04:29.511Z,19.9629
2023-05-10T11:05:30.547Z,20.0135
2023-05-10T11:06:31.656Z,20.0254
2023-05-10T11:07:32.768Z,19.9765
2023-05-10T11:08:35.714Z,19.9463
2023-05-10T11:09:34.920Z,19.9362
2023-05-10T11:10:36.028Z,19.9502
2023-05-10T11:11:37.117Z,19.9779
2023-05-10T11:12:38.220Z,20.0166
2023-05-10T11:13:39.378Z,20.0348
2023-05-10T11:14:40.403Z,20.0198
2023-05-10T11:15:41.581Z,20.0264
2023-05-10T11:16:42.597Z,20.0470
2023-05-10T11:17:43.739Z,20.0513
2023-05-10T11:18:44.933Z,20.0654
2023-05-10T11:19:45.887Z,20.0837
2023-05-10T11:20:46.998Z,20.0658
2023-05-10T11:21:48.087Z,20.0478
2023-05-10T11:22:49.185Z,20.0749
2023-05-10T11:23:50.275Z,20.0435
2023-05-10T11:24:51.371Z,20.0377
2023-05-10T11:25:52.467Z,20.0398
2023-05-10T11:26:53.567Z,20.0344
2023-05-10T11:27:54.703Z,20.0106
2023-05-10T11:28:55.750Z,20.0330
2023-05-10T11:29:56.861Z,20.0237
2023-05-10T11:30:57.926Z,20.0324
2023-05-10T11:31:59.023Z,20.0568
2023-05-10T11:33:00.192Z,20.0420
2023-05-10T11:34:01.223Z,20.0443
2023-05-10T11:35:02.308Z,20.0527
2023-05-10T11:36:03.381Z,20.0543
2023-05-10T11:37:04.493Z,20.0675
2023-05-10T11:38:05.591Z,20.0784
2023-05-10T11:39:06.671Z,20.1036
2023-05-10T11:40:07.775Z,20.0837
2023-05-10T11:41:08.855Z,20.0252
2023-05-10T11:42:10.049Z,20.0190
2023-05-10T11:43:11.060Z,20.0387
2023-05-10T11:44:12.160Z,20.0155
2023-05-10T11:45:13.242Z,20.0069
2023-05-10T11:46:14.344Z,19.9798
2023-05-10T11:47:15.423Z,19.9724
2023-05-10T11:48:16.613Z,19.9736
2023-05-10T11:49:17.618Z,20.0075
2023-05-10T11:50:18.993Z,20.0262
2023-05-10T11:51:19.800Z,20.0180
2023-05-10T11:52:20.922Z,20.0268
2023-05-10T11:53:23.270Z,20.0182
2023-05-10T11:54:23.124Z,19.9781
2023-05-10T11:55:24.247Z,19.9804
2023-05-10T11:56:25.333Z,19.9488
2023-05-10T11:57:26.382Z,19.9397
2023-05-10T11:58:27.484Z,19.9543
2023-05-10T11:59:28.607Z,19.9266
2023-05-10T12:00:29.693Z,19.9268
2023-05-10T12:01:30.748Z,19.9253
2023-05-10T12:02:31.904Z,19.8830
2023-05-10T12:03:33.094Z,19.8259
2023-05-10T12:04:34.067Z,19.8664
2023-05-10T12:05:35.186Z,19.8196
2023-05-10T12:06:36.234Z,19.7916
2023-05-10T12:07:37.322Z,19.8561
2023-05-10T12:08:38.411Z,19.9202
2023-05-10T12:09:44.037Z,19.9656
2023-05-10T12:10:41.642Z,19.9868
2023-05-10T12:11:44.026Z,19.8487
2023-05-10T12:12:42.804Z,19.8091
2023-05-10T12:13:44.049Z,19.8958
2023-05-10T12:14:44.977Z,19.9136
2023-05-10T12:15:46.060Z,19.9599
2023-05-10T12:16:47.343Z,19.9812
2023-05-10T12:17:48.336Z,20.0063
2023-05-10T12:18:49.378Z,20.0143